createdAt,value
2022-11-10T00:02:31.155Z,67.52
2022-11-10T00:05:38.809Z,68.49
2022-11-10T00:08:46.883Z,68.61
2022-11-10T00:11:54.874Z,68.97
2022-11-10T00:15:25.107Z,69.04
2022-11-10T00:18:32.808Z,69.47
2022-11-10T00:21:40.933Z,69.61
2022-11-10T00:24:41.088Z,69.97
2022-11-10T00:27:48.859Z,69.23
2022-11-10T00:30:49.041Z,69.05
2022-11-10T00:33:57.874Z,69.20
2022-11-10T00:37:05.906Z,68.96
2022-11-10T00:40:13.504Z,68.16
2022-11-10T00:43:14.880Z,68.29
2022-11-10T00:46:22.772Z,67.80
2022-11-10T00:49:24.287Z,66.87
2022-11-10T00:52:30.951Z,66.76
2022-11-10T00:55:31.135Z,66.85
2022-11-10T00:58:37.875Z,66.82
2022-11-10T01:01:46.158Z,66.67
2022-11-10T01:04:52.882Z,66.44
2022-11-10T01:07:59.831Z,66.77
2022-11-10T01:11:25.775Z,66.20
2022-11-10T01:14:32.883Z,66.39
2022-11-10T01:17:40.871Z,66.26
2022-11-10T01:20:50.880Z,66.51
2022-11-10T01:23:52.195Z,66.56
2022-11-10T01:26:59.779Z,66.40
2022-11-10T01:30:06.922Z,66.12
2022-11-10T01:33:07.119Z,65.67
2022-11-10T01:36:14.873Z,65.37
2022-11-10T01:39:28.718Z,65.25
2022-11-10T01:42:57.866Z,64.59
2022-11-10T01:46:23.829Z,65.18
2022-11-10T01:49:27.333Z,64.95
2022-11-10T01:52:34.133Z,65.18
2022-11-10T01:55:35.883Z,64.62
2022-11-10T01:58:48.862Z,64.09
2022-11-10T02:01:50.328Z,64.43
2022-11-10T02:04:57.830Z,64.26
2022-11-10T02:08:04.815Z,63.71
2022-11-10T02:11:05.155Z,63.67
2022-11-10T02:14:12.882Z,62.87
2022-11-10T02:17:13.128Z,62.90
2022-11-10T02:20:23.860Z,62.96
2022-11-10T02:23:46.842Z,63.63
2022-11-10T02:26:56.089Z,62.75
2022-11-10T02:30:02.770Z,62.75
2022-11-10T02:33:11.857Z,63.21
2022-11-10T02:36:13.190Z,63.34
2022-11-10T02:39:19.814Z,62.92
2022-11-10T02:42:20.152Z,62.45
2022-11-10T02:45:27.868Z,62.11
2022-11-10T02:48:29.113Z,62.58
2022-11-10T02:51:35.839Z,60.98
2022-11-10T02:54:37.119Z,60.39
2022-11-10T02:57:45.841Z,61.86
2022-11-10T03:00:52.857Z,60.94
2022-11-10T03:03:54.105Z,59.43
2022-11-10T03:07:00.814Z,59.18
2022-11-10T03:10:01.030Z,58.05
2022-11-10T03:13:12.856Z,57.68
2022-11-10T03:16:19.824Z,55.79
2022-11-10T03:19:20.125Z,56.48
2022-11-10T03:22:27.839Z,55.59
2022-11-10T03:25:34.818Z,55.72
2022-11-10T03:28:35.875Z,55.37
2022-11-10T03:31:43.745Z,54.21
2022-11-10T03:34:44.015Z,55.82
2022-11-10T03:37:50.818Z,55.17
2022-11-10T03:44:20.827Z,53.81
2022-11-10T03:47:27.829Z,51.68
2022-11-10T03:50:28.101Z,49.91
2022-11-10T03:53:35.848Z,49.86
2022-11-10T03:56:36.130Z,48.41
2022-11-10T03:59:44.051Z,47.61
2022-11-10T04:02:45.117Z,45.87
2022-11-10T04:06:09.846Z,46.65
2022-11-10T04:09:11.131Z,44.44
2022-11-10T04:12:35.857Z,44.12
2022-11-10T04:15:45.478Z,43.93
2022-11-10T04:18:52.842Z,46.42
2022-11-10T04:22:00.835Z,42.03
2022-11-10T04:25:01.178Z,42.55
2022-11-10T04:28:07.826Z,42.61
2022-11-10T04:31:10.189Z,42.91
2022-11-10T04:34:17.832Z,42.52
2022-11-10T04:37:19.123Z,41.47
2022-11-10T04:40:27.131Z,41.68
2022-11-10T04:43:34.824Z,41.96
2022-11-10T04:46:51.825Z,40.99
2022-11-10T04:49:52.681Z,41.92
2022-11-10T04:52:59.846Z,41.73
2022-11-10T04:56:07.858Z,41.71
2022-11-10T04:59:08.269Z,40.14
2022-11-10T05:02:14.828Z,39.53
2022-11-10T05:05:22.830Z,38.84
2022-11-10T05:08:23.997Z,39.45
2022-11-10T05:11:31.841Z,39.58
2022-11-10T05:14:33.046Z,40.60
2022-11-10T05:17:39.747Z,39.67
2022-11-10T05:20:40.225Z,41.34
2022-11-10T05:23:46.847Z,38.04
2022-11-10T05:26:47.456Z,38.79
2022-11-10T05:29:53.848Z,40.43
2022-11-10T05:32:54.177Z,39.45
2022-11-10T05:36:03.856Z,38.52
2022-11-10T05:39:16.731Z,37.72
2022-11-10T05:42:23.847Z,37.99
2022-11-10T05:45:24.149Z,37.51
2022-11-10T05:48:31.133Z,38.03
2022-11-10T05:51:32.186Z,37.63
2022-11-10T05:54:38.725Z,38.08
2022-11-10T05:57:39.175Z,37.10
2022-11-10T06:00:45.747Z,36.88
2022-11-10T06:03:46.170Z,35.91
2022-11-10T06:06:52.800Z,36.04
2022-11-10T06:10:00.871Z,36.15
2022-11-10T06:13:01.364Z,35.43
2022-11-10T06:16:07.839Z,35.99
2022-11-10T06:19:09.026Z,37.72
2022-11-10T06:22:15.827Z,35.41
2022-11-10T06:25:23.910Z,36.82
2022-11-10T06:28:24.259Z,36.54
2022-11-10T06:31:31.831Z,36.99
2022-11-10T06:34:32.119Z,34.79
2022-11-10T06:37:39.731Z,34.83
2022-11-10T06:40:52.801Z,36.34
2022-11-10T06:43:53.012Z,36.91
2022-11-10T06:46:59.737Z,34.95
2022-11-10T06:50:00.982Z,35.92
2022-11-10T06:53:11.725Z,35.54
2022-11-10T06:56:11.992Z,35.85
2022-11-10T06:59:19.800Z,36.76
2022-11-10T07:02:21.033Z,36.57
2022-11-10T07:05:28.804Z,36.95
2022-11-10T07:08:36.740Z,35.44
2022-11-10T07:11:38.276Z,35.44
2022-11-10T07:14:45.729Z,35.22
2022-11-10T07:17:56.898Z,34.35
2022-11-10T07:20:57.990Z,36.41
2022-11-10T07:24:04.739Z,36.90
2022-11-10T07:27:05.077Z,36.45
2022-11-10T07:30:11.817Z,37.58
2022-11-10T07:33:15.803Z,34.86
2022-11-10T07:36:22.837Z,35.38
2022-11-10T07:39:23.064Z,37.29
2022-11-10T07:42:30.826Z,36.24
2022-11-10T07:45:39.872Z,35.90
2022-11-10T07:48:40.103Z,37.65
2022-11-10T07:51:46.803Z,36.63
2022-11-10T07:54:47.078Z,34.90
2022-11-10T07:57:54.801Z,36.63
2022-11-10T08:00:56.108Z,37.36
2022-11-10T08:04:02.819Z,36.75
2022-11-10T08:07:03.353Z,35.64
2022-11-10T08:10:09.808Z,36.19
2022-11-10T08:13:22.093Z,36.90
2022-11-10T08:16:22.133Z,35.63
2022-11-10T08:19:29.907Z,37.04
2022-11-10T08:22:31.030Z,36.88
2022-11-10T08:25:37.842Z,36.74
2022-11-10T08:28:38.001Z,37.76
2022-11-10T08:31:47.829Z,37.08
2022-11-10T08:34:49.037Z,36.81
2022-11-10T08:37:55.806Z,38.28
2022-11-10T08:41:05.083Z,37.80
2022-11-10T08:44:08.106Z,39.07
2022-11-10T08:47:11.053Z,37.43
2022-11-10T08:50:18.871Z,38.10
2022-11-10T08:53:25.638Z,37.74
2022-11-10T08:56:33.823Z,38.41
2022-11-10T08:59:40.758Z,37.66
2022-11-10T09:02:48.814Z,38.55
2022-11-10T09:05:58.569Z,39.06
2022-11-10T09:09:05.809Z,38.84
2022-11-10T09:12:13.803Z,37.97
2022-11-10T09:15:16.171Z,38.87
2022-11-10T09:18:24.744Z,38.70
2022-11-10T09:21:32.852Z,38.57
2022-11-10T09:24:39.880Z,38.70
2022-11-10T09:27:50.758Z,38.73
2022-11-10T09:30:53.076Z,37.79
2022-11-10T09:33:59.889Z,37.60
2022-11-10T09:37:01.055Z,37.40
2022-11-10T09:40:12.747Z,37.79
2022-11-10T09:43:21.708Z,37.64
2022-11-10T09:46:57.801Z,37.88
2022-11-10T09:50:09.765Z,38.24
2022-11-10T09:53:17.855Z,38.94
2022-11-10T09:56:40.815Z,37.98
2022-11-10T09:59:43.090Z,37.68
2022-11-10T10:02:56.755Z,38.81
2022-11-10T10:06:24.843Z,39.21
2022-11-10T10:09:44.599Z,37.71
2022-11-10T10:13:17.024Z,37.77
2022-11-10T10:16:39.798Z,38.14
2022-11-10T10:20:10.943Z,38.23
2022-11-10T10:23:54.369Z,38.95
2022-11-10T10:27:07.769Z,38.87
2022-11-10T10:30:18.760Z,39.22
2022-11-10T10:33:31.780Z,38.21
2022-11-10T10:36:32.987Z,40.29
2022-11-10T10:39:58.858Z,40.95
2022-11-10T10:43:00.806Z,38.57
2022-11-10T10:46:39.822Z,40.65
2022-11-10T10:49:41.072Z,39.92
2022-11-10T10:52:47.858Z,41.84
2022-11-10T10:55:56.598Z,39.79
2022-11-10T10:59:14.102Z,41.10
2022-11-10T11:02:28.732Z,41.42
2022-11-10T11:05:35.737Z,40.22
2022-11-10T11:08:37.216Z,40.71
2022-11-10T11:11:47.801Z,40.73
2022-11-10T11:14:48.282Z,41.73
2022-11-10T11:18:07.713Z,41.87
2022-11-10T11:21:07.936Z,42.01
2022-11-10T11:24:25.809Z,42.60
2022-11-10T11:27:50.762Z,44.38
2022-11-10T11:31:17.716Z,43.58
2022-11-10T11:34:30.783Z,45.08
2022-11-10T11:38:12.729Z,45.08
2022-11-10T11:41:45.867Z,44.39
2022-11-10T11:44:56.130Z,46.13
2022-11-10T11:48:49.789Z,46.78
2022-11-10T11:52:27.150Z,46.22
2022-11-10T11:55:42.721Z,46.91
2022-11-10T11:59:21.979Z,46.87
2022-11-10T12:02:45.583Z,47.48
2022-11-10T12:05:54.060Z,46.73
2022-11-10T12:09:19.789Z,48.00
2022-11-10T12:12:35.801Z,48.40
2022-11-10T12:15:50.396Z,48.90
2022-11-10T12:19:08.743Z,49.05
2022-11-10T12:22:38.808Z,49.34
2022-11-10T12:26:12.257Z,50.55
2022-11-10T12:29:35.806Z,49.95
2022-11-10T12:37:01.796Z,51.18
2022-11-10T12:40:31.755Z,51.19
2022-11-10T12:43:35.617Z,51.70
2022-11-10T12:46:45.974Z,52.88
2022-11-10T12:50:15.196Z,52.06
2022-11-10T12:53:42.824Z,52.34
2022-11-10T12:57:07.744Z,53.15
2022-11-10T13:00:27.395Z,53.44
2022-11-10T13:03:47.789Z,53.83
2022-11-10T13:06:58.206Z,53.55
2022-11-10T13:10:34.782Z,53.85
2022-11-10T13:13:44.735Z,53.87
2022-11-10T13:16:52.767Z,53.51
2022-11-10T13:20:09.597Z,53.16
2022-11-10T13:23:41.055Z,53.81
2022-11-10T13:26:47.247Z,52.72
2022-11-10T13:29:54.773Z,53.17
2022-11-10T13:32:55.214Z,53.18
2022-11-10T13:36:06.027Z,52.87
2022-11-10T13:39:30.798Z,51.97
2022-11-10T13:42:40.021Z,51.78
2022-11-10T13:45:51.793Z,51.97
2022-11-10T13:49:25.765Z,51.45
2022-11-10T13:52:40.772Z,51.81
2022-11-10T13:56:06.791Z,50.91
2022-11-10T13:59:13.831Z,52.02
2022-11-10T14:02:35.295Z,51.32
2022-11-10T14:05:49.804Z,51.23
2022-11-10T14:09:13.405Z,51.63
2022-11-10T14:12:49.153Z,51.29
2022-11-10T14:15:51.227Z,51.57
2022-11-10T14:19:31.776Z,51.48
2022-11-10T14:22:39.373Z,50.94
2022-11-10T14:25:57.728Z,51.28
2022-11-10T14:28:58.951Z,50.59
2022-11-10T14:32:05.721Z,51.17
2022-11-10T14:35:18.326Z,51.90
2022-11-10T14:38:57.776Z,50.86
2022-11-10T14:42:15.727Z,51.89
2022-11-10T14:45:24.787Z,51.02
2022-11-10T14:48:31.138Z,50.88
2022-11-10T14:51:38.791Z,51.93
2022-11-10T14:54:39.668Z,51.52
2022-11-10T14:57:48.791Z,52.29
2022-11-10T15:00:58.775Z,51.43
2022-11-10T15:04:05.800Z,52.14
2022-11-10T15:07:08.147Z,52.20
2022-11-10T15:10:25.030Z,52.73
2022-11-10T15:13:45.046Z,52.73
2022-11-10T15:17:08.760Z,53.37
2022-11-10T15:20:12.539Z,53.94
2022-11-10T15:23:46.713Z,54.89
2022-11-10T15:26:49.111Z,55.26
2022-11-10T15:29:56.790Z,55.70
2022-11-10T15:33:02.004Z,55.98
2022-11-10T15:36:37.788Z,56.32
2022-11-10T15:39:38.097Z,56.00
2022-11-10T15:42:45.906Z,56.35
2022-11-10T15:45:47.192Z,55.87
2022-11-10T15:48:57.774Z,56.19
2022-11-10T15:52:00.054Z,56.63
2022-11-10T15:55:06.772Z,56.45
2022-11-10T15:58:07.096Z,57.17
2022-11-10T16:01:13.801Z,57.43
2022-11-10T16:04:24.772Z,58.10
2022-11-10T16:07:25.974Z,57.51
2022-11-10T16:10:35.768Z,58.46
2022-11-10T16:13:43.761Z,58.62
2022-11-10T16:16:45.192Z,58.67
2022-11-10T16:19:51.764Z,58.40
2022-11-10T16:22:58.795Z,58.58
2022-11-10T16:26:05.772Z,59.62
2022-11-10T16:29:06.066Z,60.21
2022-11-10T16:32:13.705Z,59.55
2022-11-10T16:35:25.762Z,59.31
2022-11-10T16:38:38.769Z,58.94
2022-11-10T16:41:46.786Z,58.96
2022-11-10T16:44:48.131Z,59.56
2022-11-10T16:47:54.796Z,58.96
2022-11-10T16:51:03.738Z,58.71
2022-11-10T16:54:11.715Z,58.70
2022-11-10T16:57:16.857Z,59.13
2022-11-10T17:00:24.795Z,59.37
2022-11-10T17:03:33.811Z,58.94
2022-11-10T17:06:43.883Z,58.76
2022-11-10T17:09:44.319Z,58.77
2022-11-10T17:12:51.710Z,58.93
2022-11-10T17:16:09.711Z,58.52
2022-11-10T17:19:19.790Z,58.74
2022-11-10T17:22:22.513Z,58.74
2022-11-10T17:25:40.770Z,57.64
2022-11-10T17:28:47.795Z,58.13
2022-11-10T17:31:54.744Z,59.15
2022-11-10T17:34:55.073Z,59.09
2022-11-10T17:38:08.699Z,58.92
2022-11-10T17:41:20.769Z,58.68
2022-11-10T17:44:29.732Z,59.85
2022-11-10T17:47:38.755Z,59.09
2022-11-10T17:50:40.228Z,59.36
2022-11-10T17:53:47.786Z,60.17
2022-11-10T17:56:49.220Z,59.92
2022-11-10T17:59:55.776Z,59.96
2022-11-10T18:03:02.774Z,60.05
2022-11-10T18:06:07.615Z,59.07
2022-11-10T18:09:15.767Z,60.12
2022-11-10T18:12:16.101Z,58.96
2022-11-10T18:15:27.770Z,58.18
2022-11-10T18:18:34.774Z,57.55
2022-11-10T18:21:35.118Z,57.85
2022-11-10T18:24:42.766Z,57.29
2022-11-10T18:27:45.195Z,57.77
2022-11-10T18:30:52.780Z,57.92
2022-11-10T18:33:59.698Z,57.73
2022-11-10T18:37:00.128Z,56.59
2022-11-10T18:40:06.758Z,57.49
2022-11-10T18:43:21.957Z,58.08
2022-11-10T18:46:23.036Z,58.40
2022-11-10T18:49:31.754Z,58.03
2022-11-10T18:52:32.204Z,57.87
2022-11-10T18:55:44.317Z,57.86
2022-11-10T18:58:57.775Z,57.54
2022-11-10T19:02:04.830Z,57.42
2022-11-10T19:05:05.474Z,56.99
2022-11-10T19:08:15.744Z,57.54
2022-11-10T19:11:21.069Z,56.80
2022-11-10T19:14:28.754Z,56.88
2022-11-10T19:17:29.097Z,56.63
2022-11-10T19:20:35.744Z,56.73
2022-11-10T19:23:36.346Z,56.72
2022-11-10T19:26:44.750Z,56.84
2022-11-10T19:29:45.425Z,56.71
2022-11-10T19:32:53.681Z,57.30
2022-11-10T19:36:01.800Z,57.46
2022-11-10T19:39:03.224Z,57.49
2022-11-10T19:42:10.789Z,57.52
2022-11-10T19:45:12.749Z,57.69
2022-11-10T19:48:20.731Z,57.50
2022-11-10T19:51:30.658Z,57.12
2022-11-10T19:54:37.654Z,57.94
2022-11-10T19:57:45.746Z,58.03
2022-11-10T20:00:49.880Z,58.16
2022-11-10T20:03:57.653Z,58.09
2022-11-10T20:07:16.425Z,58.40
2022-11-10T20:10:24.776Z,58.21
2022-11-10T20:13:27.717Z,58.10
2022-11-10T20:16:34.656Z,57.86
2022-11-10T20:19:41.191Z,58.34
2022-11-10T20:22:48.737Z,58.28
2022-11-10T20:25:49.912Z,58.38
2022-11-10T20:28:57.802Z,59.09
2022-11-10T20:31:57.950Z,59.12
2022-11-10T20:35:04.827Z,59.04
2022-11-10T20:38:04.897Z,59.18
2022-11-10T20:41:20.665Z,59.04
2022-11-10T20:44:21.927Z,59.09
2022-11-10T20:47:29.819Z,58.93
2022-11-10T20:50:29.933Z,59.10
2022-11-10T20:53:37.761Z,58.77
2022-11-10T20:56:38.089Z,58.23
2022-11-10T20:59:44.747Z,58.75
2022-11-10T21:02:44.984Z,58.49
2022-11-10T21:05:51.737Z,58.30
2022-11-10T21:08:52.033Z,59.49
2022-11-10T21:12:16.629Z,58.88
2022-11-10T21:15:17.802Z,59.36
2022-11-10T21:18:25.656Z,59.79
2022-11-10T21:21:35.102Z,59.97
2022-11-10T21:24:42.730Z,59.26
2022-11-10T21:27:50.764Z,58.95
2022-11-10T21:30:52.035Z,58.87
2022-11-10T21:34:02.646Z,59.28
2022-11-10T21:37:03.018Z,58.83
2022-11-10T21:40:09.647Z,58.39
2022-11-10T21:43:17.014Z,58.78
2022-11-10T21:46:17.846Z,57.17
2022-11-10T21:49:24.631Z,57.49
2022-11-10T21:52:31.745Z,57.83
2022-11-10T21:55:32.049Z,57.05
2022-11-10T21:58:39.719Z,57.19
2022-11-10T22:01:46.723Z,57.35
2022-11-10T22:04:53.642Z,56.96
2022-11-10T22:07:54.154Z,58.27
2022-11-10T22:11:18.782Z,57.95
2022-11-10T22:14:37.056Z,57.88
2022-11-10T22:18:01.633Z,57.93
2022-11-10T22:21:03.567Z,57.51
2022-11-10T22:24:28.611Z,57.41
2022-11-10T22:27:29.914Z,57.03
2022-11-10T22:30:36.635Z,56.95
2022-11-10T22:33:48.738Z,56.38
2022-11-10T22:36:50.417Z,56.26
2022-11-10T22:40:15.646Z,56.13
2022-11-10T22:43:40.386Z,55.60
2022-11-10T22:46:48.739Z,55.54
2022-11-10T22:49:55.630Z,55.70
2022-11-10T22:53:02.682Z,56.69
2022-11-10T22:56:02.934Z,56.44
2022-11-10T22:59:09.648Z,56.27
2022-11-10T23:02:16.738Z,56.08
2022-11-10T23:05:18.016Z,56.22
2022-11-10T23:08:24.741Z,55.93
2022-11-10T23:11:34.010Z,57.53
2022-11-10T23:14:40.645Z,57.25
2022-11-10T23:17:42.012Z,56.56
2022-11-10T23:20:48.647Z,56.65
2022-11-10T23:23:51.258Z,56.88
2022-11-10T23:26:58.649Z,57.26
2022-11-10T23:29:58.974Z,57.11
2022-11-10T23:33:05.659Z,57.17
2022-11-10T23:36:13.690Z,56.82
2022-11-10T23:39:21.631Z,57.19
2022-11-10T23:42:34.692Z,57.25
2022-11-10T23:46:05.337Z,57.25
2022-11-10T23:49:10.623Z,58.11
2022-11-10T23:52:10.906Z,57.64
2022-11-10T23:55:18.720Z,57.53
2022-11-10T23:58:19.885Z,57.31
